كركوك, العراق

06:31 AM AST on مارس 27, 2015 (GMT +0300)
Erbeel | | Change Station
CLOSE
Current Station
Airport
Location: Erbeel,
Elevation: 1378 ft
Nearby Weather Stations

Elev 1378 ft 36.15 °N, 44.00 °E | Updated 31 minutes ago

Clear
صافية
43 °F
Feels Like 43 °F
N
2
ريح متغير ريح from متغير

هذا اليوم
High -- | Low -- °F
--% Chance of Precip.
Yesterday
High -- | Low -- °F
Precip. -- في
5:56 AM 6:19 PM
الهلال الأول, 48% visible
الضغط 30.18 في
وضوح الرؤية -9999.0 أميال
سحابات
نقطة الندى 36 °F
الرطوبة 76%
Rainfall 0.00 في
عمق الثلج Not available.
الأشعة فوق البنفسجية Not available.
Pollen Not available.
جودة الهواء Not available.
Flu Activity Not available.
METAR ORER 270300Z VRB02KT CAVOK 06/02 Q1022 NOSIG

More Conditions Fewer Conditions

الضغط 30.18 في
وضوح الرؤية -9999.0 أميال
سحابات
نقطة الندى 36 °F
الرطوبة 76%
Rainfall 0.00 في
عمق الثلج Not available.
الأشعة فوق البنفسجية Not available.
Pollen Not available.
جودة الهواء Not available.
Flu Activity Not available.
METAR ORER 270300Z VRB02KT CAVOK 06/02 Q1022 NOSIG

More Conditions Fewer Conditions

10-Day Weather Forecast

Almanac

علم الفلك

Mar. 27, 2015 Rise Set
Actual Time
Civil Twilight
Nautical Twilight
Astronomical Twilight
قمر
Length Of Visible Light
طول الیوم
Tomorrow will be .
, % of the Moon is Illuminated

Today's Extremes

Country Highs Country Lows

Community

WunderPhotos

Upload Photos

1,808,697 photos uploaded!

WunderBlogs® & News

Nearby

جودة الهواء

  جودة الهواء AQ Index Pollutant
Not available.

عمق الثلج

Station Depth Elevation

Earthquake Activity

City Distance Mag. Time & Date
Minimum magnitude displayed is 2.5.

Coastal Water Temperatures

مكان درجات الحرارة

Stations

Nearby Weather Stations

Station Location الحرارة رياح باردة نقطة الندى الرطوبة ريح Precip. Elev تحديث Type